createdAt,value
2019-06-08T00:00:06.331Z,68.87
2019-06-08T00:01:06.359Z,69.21
2019-06-08T00:02:06.316Z,69.10
2019-06-08T00:03:06.303Z,69.21
2019-06-08T00:04:06.301Z,69.10
2019-06-08T00:05:06.275Z,69.71
2019-06-08T00:06:06.272Z,70.02
2019-06-08T00:07:06.257Z,69.92
2019-06-08T00:08:06.247Z,70.32
2019-06-08T00:09:11.870Z,70.32
2019-06-08T00:10:06.221Z,70.32
2019-06-08T00:11:06.214Z,70.45
2019-06-08T00:12:06.208Z,70.02
2019-06-08T00:13:06.190Z,70.02
2019-06-08T00:14:06.192Z,70.56
2019-06-08T00:15:06.174Z,70.45
2019-06-08T00:16:06.156Z,69.95
2019-06-08T00:17:06.145Z,69.44
2019-06-08T00:18:06.130Z,69.14
2019-06-08T00:19:06.138Z,68.73
2019-06-08T00:20:11.169Z,68.94
2019-06-08T00:21:06.099Z,68.53
2019-06-08T00:22:06.086Z,68.53
2019-06-08T00:23:06.076Z,68.43
2019-06-08T00:24:06.084Z,68.13
2019-06-08T00:25:06.062Z,67.52
2019-06-08T00:26:06.043Z,67.42
2019-06-08T00:27:06.032Z,67.42
2019-06-08T00:28:06.020Z,67.42
2019-06-08T00:29:06.024Z,67.32
2019-06-08T00:30:06.001Z,67.42
2019-06-08T00:31:11.010Z,66.91
2019-06-08T00:32:05.974Z,67.32
2019-06-08T00:33:05.963Z,66.91
2019-06-08T00:34:05.949Z,66.81
2019-06-08T00:35:05.953Z,66.50
2019-06-08T00:36:05.935Z,66.71
2019-06-08T00:37:05.917Z,66.81
2019-06-08T00:38:05.904Z,66.10
2019-06-08T00:39:05.891Z,65.50
2019-06-08T00:40:05.891Z,65.29
2019-06-08T00:41:05.880Z,65.70
2019-06-08T00:42:10.888Z,65.59
2019-06-08T00:43:05.852Z,66.07
2019-06-08T00:44:05.840Z,65.50
2019-06-08T00:45:05.835Z,65.36
2019-06-08T00:46:05.814Z,65.67
2019-06-08T00:47:05.813Z,65.47
2019-06-08T00:48:05.817Z,65.67
2019-06-08T00:49:05.798Z,65.47
2019-06-08T00:50:05.783Z,65.36
2019-06-08T00:51:05.760Z,65.16
2019-06-08T00:52:05.748Z,64.96
2019-06-08T00:53:10.766Z,65.26
2019-06-08T00:54:05.727Z,64.96
2019-06-08T00:55:05.739Z,65.47
2019-06-08T00:56:05.704Z,65.26
2019-06-08T00:57:05.689Z,65.26
2019-06-08T00:58:05.684Z,65.06
2019-06-08T00:59:05.668Z,64.65
2019-06-08T01:00:10.656Z,64.86
2019-06-08T01:01:06.660Z,64.76
2019-06-08T01:02:05.632Z,64.65
2019-06-08T01:03:05.632Z,64.76
2019-06-08T01:04:10.641Z,64.65
2019-06-08T01:05:05.618Z,64.76
2019-06-08T01:06:05.590Z,64.96
2019-06-08T01:07:05.590Z,64.55
2019-06-08T01:08:05.597Z,64.55
2019-06-08T01:09:05.557Z,64.62
2019-06-08T01:10:05.555Z,64.76
2019-06-08T01:11:05.528Z,64.83
2019-06-08T01:12:05.517Z,64.65
2019-06-08T01:13:05.509Z,64.76
2019-06-08T01:14:05.501Z,64.86
2019-06-08T01:15:10.532Z,64.55
2019-06-08T01:16:05.473Z,64.96
2019-06-08T01:17:05.462Z,65.26
2019-06-08T01:18:05.460Z,65.56
2019-06-08T01:19:05.446Z,65.03
2019-06-08T01:20:05.435Z,64.52
2019-06-08T01:21:05.445Z,65.06
2019-06-08T01:22:05.405Z,65.43
2019-06-08T01:23:05.395Z,64.86
2019-06-08T01:24:05.447Z,65.16
2019-06-08T01:25:05.372Z,65.67
2019-06-08T01:26:10.403Z,65.53
2019-06-08T01:27:05.379Z,65.33
2019-06-08T01:28:05.338Z,64.86
2019-06-08T01:29:05.326Z,64.93
2019-06-08T01:30:05.320Z,64.83
2019-06-08T01:31:05.311Z,65.56
2019-06-08T01:32:05.296Z,64.83
2019-06-08T01:33:05.283Z,65.16
2019-06-08T01:34:05.274Z,65.33
2019-06-08T01:35:05.256Z,65.16
2019-06-08T01:36:05.264Z,65.36
2019-06-08T01:37:10.258Z,65.47
2019-06-08T01:38:05.235Z,65.67
2019-06-08T01:39:05.213Z,65.77
2019-06-08T01:40:05.201Z,65.67
2019-06-08T01:41:05.201Z,65.67
2019-06-08T01:42:05.179Z,65.97
2019-06-08T01:43:05.173Z,65.23
2019-06-08T01:44:05.156Z,65.56
2019-06-08T01:45:05.141Z,65.47
2019-06-08T01:46:05.146Z,65.67
2019-06-08T01:47:05.121Z,65.56
2019-06-08T01:48:19.873Z,65.36
2019-06-08T01:49:06.103Z,65.67
2019-06-08T01:50:05.087Z,65.56
2019-06-08T01:51:05.088Z,65.56
2019-06-08T01:52:05.065Z,65.36
2019-06-08T01:53:05.058Z,65.56
2019-06-08T01:54:05.041Z,65.16
2019-06-08T01:55:05.055Z,64.96
2019-06-08T01:56:05.029Z,65.56
2019-06-08T01:57:05.012Z,65.43
2019-06-08T01:58:04.998Z,65.47
2019-06-08T01:59:10.008Z,65.47
2019-06-08T02:00:29.363Z,65.67
2019-06-08T02:01:05.983Z,65.77
2019-06-08T02:02:04.965Z,65.47
2019-06-08T02:03:04.943Z,65.36
2019-06-08T02:04:04.983Z,65.67
2019-06-08T02:05:04.927Z,65.59
2019-06-08T02:06:04.915Z,65.56
2019-06-08T02:07:04.912Z,65.36
2019-06-08T02:08:04.890Z,65.26
2019-06-08T02:09:04.871Z,65.56
2019-06-08T02:10:09.893Z,65.06
2019-06-08T02:11:04.855Z,64.76
2019-06-08T02:12:04.850Z,64.86
2019-06-08T02:13:08.415Z,64.55
2019-06-08T02:14:04.829Z,64.96
2019-06-08T02:15:04.807Z,64.55
2019-06-08T02:16:04.821Z,63.95
2019-06-08T02:17:04.794Z,63.75
2019-06-08T02:18:04.765Z,63.34
2019-06-08T02:19:04.758Z,63.54
2019-06-08T02:20:04.750Z,63.13
2019-06-08T02:21:09.761Z,62.84
2019-06-08T02:22:04.745Z,62.53
2019-06-08T02:23:04.722Z,62.23
2019-06-08T02:24:04.699Z,61.72
2019-06-08T02:25:04.693Z,61.82
2019-06-08T02:26:04.682Z,61.52
2019-06-08T02:27:04.691Z,61.41
2019-06-08T02:28:05.554Z,60.81
2019-06-08T02:29:04.662Z,60.71
2019-06-08T02:30:04.636Z,59.80
2019-06-08T02:31:04.648Z,59.90
2019-06-08T02:32:09.643Z,60.78
2019-06-08T02:33:04.599Z,58.99
2019-06-08T02:34:04.608Z,59.39
2019-06-08T02:35:04.615Z,59.19
2019-06-08T02:36:04.571Z,58.38
2019-06-08T02:37:04.576Z,58.15
2019-06-08T02:38:04.544Z,58.07
2019-06-08T02:39:04.557Z,58.15
2019-06-08T02:40:04.526Z,57.95
2019-06-08T02:41:04.513Z,57.75
2019-06-08T02:42:04.524Z,57.85
2019-06-08T02:43:09.517Z,58.15
2019-06-08T02:44:04.477Z,58.89
2019-06-08T02:45:04.466Z,58.76
2019-06-08T02:46:04.454Z,58.36
2019-06-08T02:47:04.456Z,58.05
2019-06-08T02:48:04.480Z,57.34
2019-06-08T02:49:04.994Z,56.84
2019-06-08T02:50:04.410Z,57.07
2019-06-08T02:51:04.409Z,56.73
2019-06-08T02:52:04.406Z,56.56
2019-06-08T02:53:04.377Z,55.22
2019-06-08T02:54:09.390Z,54.61
2019-06-08T02:55:04.369Z,52.08
2019-06-08T02:56:04.370Z,52.79
2019-06-08T02:57:04.365Z,53.22
2019-06-08T02:58:04.330Z,53.30
2019-06-08T02:59:04.322Z,53.40
2019-06-08T03:00:04.305Z,53.30
2019-06-08T03:01:04.295Z,53.60
2019-06-08T03:02:04.276Z,53.60
2019-06-08T03:03:04.290Z,53.50
2019-06-08T03:04:04.254Z,53.60
2019-06-08T03:05:09.273Z,52.99
2019-06-08T03:06:04.231Z,53.40
2019-06-08T03:07:04.220Z,53.52
2019-06-08T03:08:04.227Z,53.70
2019-06-08T03:09:04.198Z,53.80
2019-06-08T03:10:04.226Z,53.80
2019-06-08T03:11:04.177Z,53.72
2019-06-08T03:12:04.180Z,53.60
2019-06-08T03:13:04.166Z,53.83
2019-06-08T03:14:04.144Z,53.30
2019-06-08T03:15:04.186Z,53.30
2019-06-08T03:16:09.158Z,53.50
2019-06-08T03:17:04.131Z,53.32
2019-06-08T03:18:04.109Z,53.02
2019-06-08T03:19:20.041Z,53.02
2019-06-08T03:20:05.177Z,53.32
2019-06-08T03:21:04.069Z,53.22
2019-06-08T03:22:04.057Z,53.22
2019-06-08T03:23:04.069Z,52.61
2019-06-08T03:24:04.036Z,53.02
2019-06-08T03:25:04.064Z,52.92
2019-06-08T03:26:04.018Z,52.81
2019-06-08T03:27:09.021Z,53.02
2019-06-08T03:28:03.997Z,53.22
2019-06-08T03:29:03.996Z,52.61
2019-06-08T03:30:16.149Z,53.22
2019-06-08T03:31:04.987Z,53.02
2019-06-08T03:32:03.963Z,52.92
2019-06-08T03:33:04.020Z,53.02
2019-06-08T03:34:03.962Z,53.12
2019-06-08T03:35:03.915Z,52.33
2019-06-08T03:36:03.959Z,53.05
2019-06-08T03:37:03.892Z,53.14
2019-06-08T03:38:08.909Z,53.05
2019-06-08T03:39:03.865Z,52.84
2019-06-08T03:40:03.858Z,52.94
2019-06-08T03:41:03.855Z,52.74
2019-06-08T03:42:03.838Z,52.64
2019-06-08T03:43:03.838Z,53.25
2019-06-08T03:44:03.822Z,53.25
2019-06-08T03:45:03.799Z,52.94
2019-06-08T03:46:03.787Z,52.94
2019-06-08T03:47:03.782Z,53.14
2019-06-08T03:48:03.766Z,53.45
2019-06-08T03:49:08.786Z,53.25
2019-06-08T03:50:03.741Z,53.65
2019-06-08T03:51:03.744Z,53.65
2019-06-08T03:52:03.734Z,53.45
2019-06-08T03:53:03.710Z,53.65
2019-06-08T03:54:03.710Z,54.16
2019-06-08T03:55:03.688Z,53.55
2019-06-08T03:56:03.674Z,53.96
2019-06-08T03:57:03.664Z,54.86
2019-06-08T03:58:03.657Z,54.36
2019-06-08T03:59:03.652Z,54.49
2019-06-08T04:00:13.496Z,55.10
2019-06-08T04:01:04.621Z,54.49
2019-06-08T04:02:03.613Z,55.50
2019-06-08T04:03:03.604Z,55.30
2019-06-08T04:04:03.604Z,55.19
2019-06-08T04:05:03.578Z,55.30
2019-06-08T04:06:03.575Z,54.69
2019-06-08T04:07:03.550Z,54.99
2019-06-08T04:08:03.544Z,55.50
2019-06-08T04:09:03.548Z,55.70
2019-06-08T04:10:03.530Z,56.01
2019-06-08T04:11:08.530Z,56.21
2019-06-08T04:12:03.498Z,56.41
2019-06-08T04:13:03.490Z,56.31
2019-06-08T04:14:03.491Z,56.51
2019-06-08T04:15:03.471Z,56.82
2019-06-08T04:16:03.455Z,56.61
2019-06-08T04:17:03.463Z,56.82
2019-06-08T04:18:03.428Z,57.12
2019-06-08T04:19:03.495Z,57.42
2019-06-08T04:20:11.033Z,57.32
2019-06-08T04:21:04.455Z,57.53
2019-06-08T04:22:08.411Z,57.73
2019-06-08T04:23:03.426Z,57.83
2019-06-08T04:24:03.391Z,57.53
2019-06-08T04:25:03.367Z,57.83
2019-06-08T04:26:03.372Z,57.73
2019-06-08T04:27:03.335Z,57.42
2019-06-08T04:28:03.317Z,57.62
2019-06-08T04:29:03.449Z,57.73
2019-06-08T04:30:03.370Z,57.53
2019-06-08T04:31:03.332Z,57.42
2019-06-08T04:32:03.279Z,57.22
2019-06-08T04:33:08.291Z,57.32
2019-06-08T04:34:03.263Z,57.32
2019-06-08T04:35:03.239Z,57.22
2019-06-08T04:36:03.233Z,57.22
2019-06-08T04:37:03.247Z,57.12
2019-06-08T04:38:03.209Z,57.02
2019-06-08T04:39:03.206Z,57.62
2019-06-08T04:40:03.187Z,57.73
2019-06-08T04:41:03.185Z,57.83
2019-06-08T04:42:03.162Z,58.23
2019-06-08T04:43:03.153Z,58.03
2019-06-08T04:44:08.183Z,58.44
2019-06-08T04:45:03.132Z,58.03
2019-06-08T04:46:03.118Z,57.93
2019-06-08T04:47:03.112Z,57.32
2019-06-08T04:48:03.096Z,57.32
2019-06-08T04:49:03.088Z,57.40
2019-06-08T04:50:20.820Z,57.29
2019-06-08T04:51:04.060Z,57.70
2019-06-08T04:52:03.050Z,57.29
2019-06-08T04:53:03.052Z,57.50
2019-06-08T04:54:03.047Z,57.40
2019-06-08T04:55:08.053Z,57.29
2019-06-08T04:56:03.047Z,57.70
2019-06-08T04:57:02.998Z,57.53
2019-06-08T04:58:02.989Z,56.99
2019-06-08T04:59:02.978Z,57.12
2019-06-08T05:00:12.223Z,55.98
2019-06-08T05:01:03.988Z,55.98
2019-06-08T05:02:02.979Z,55.88
2019-06-08T05:03:02.942Z,54.97
2019-06-08T05:04:02.916Z,54.76
2019-06-08T05:05:02.960Z,55.27
2019-06-08T05:06:07.915Z,54.76
2019-06-08T05:07:02.887Z,55.17
2019-06-08T05:08:02.876Z,54.94
2019-06-08T05:09:02.864Z,54.44
2019-06-08T05:10:02.863Z,54.23
2019-06-08T05:11:02.843Z,53.93
2019-06-08T05:12:02.829Z,53.83
2019-06-08T05:13:02.858Z,54.11
2019-06-08T05:14:02.820Z,54.00
2019-06-08T05:15:02.877Z,53.50
2019-06-08T05:16:02.785Z,53.80
2019-06-08T05:17:07.829Z,53.90
2019-06-08T05:18:02.788Z,53.90
2019-06-08T05:19:02.759Z,53.80
2019-06-08T05:20:03.718Z,53.50
2019-06-08T05:21:02.853Z,53.90
2019-06-08T05:22:02.805Z,53.27
2019-06-08T05:23:02.830Z,52.89
2019-06-08T05:24:02.712Z,53.19
2019-06-08T05:25:02.717Z,53.80
2019-06-08T05:26:02.745Z,53.19
2019-06-08T05:27:02.715Z,53.32
2019-06-08T05:28:07.689Z,52.99
2019-06-08T05:29:02.647Z,53.30
2019-06-08T05:30:08.350Z,52.92
2019-06-08T05:31:05.629Z,53.30
2019-06-08T05:32:02.656Z,53.09
2019-06-08T05:33:02.656Z,53.02
2019-06-08T05:34:02.582Z,53.22
2019-06-08T05:35:02.570Z,52.72
2019-06-08T05:36:02.570Z,52.81
2019-06-08T05:37:02.547Z,52.81
2019-06-08T05:38:02.541Z,53.02
2019-06-08T05:39:07.554Z,52.81
2019-06-08T05:40:02.512Z,52.89
2019-06-08T05:41:02.523Z,52.08
2019-06-08T05:42:02.497Z,52.48
2019-06-08T05:43:02.479Z,52.19
2019-06-08T05:44:02.497Z,51.57
2019-06-08T05:45:02.499Z,52.79
2019-06-08T05:46:02.455Z,52.08
2019-06-08T05:47:02.444Z,52.39
2019-06-08T05:48:02.428Z,52.41
2019-06-08T05:49:02.415Z,51.68
2019-06-08T05:50:07.425Z,52.19
2019-06-08T05:51:04.099Z,51.81
2019-06-08T05:52:02.384Z,52.19
2019-06-08T05:53:02.370Z,51.88
2019-06-08T05:54:03.183Z,50.87
2019-06-08T05:55:02.348Z,52.01
2019-06-08T05:56:02.353Z,51.48
2019-06-08T05:57:02.332Z,51.78
2019-06-08T05:58:02.337Z,51.68
2019-06-08T05:59:02.301Z,51.68
2019-06-08T06:00:08.773Z,51.68
2019-06-08T06:01:08.312Z,51.88
2019-06-08T06:02:02.269Z,51.88
2019-06-08T06:03:02.258Z,51.28
2019-06-08T06:04:02.246Z,51.50
2019-06-08T06:05:02.240Z,51.68
2019-06-08T06:06:02.233Z,52.21
2019-06-08T06:07:02.222Z,51.60
2019-06-08T06:08:02.264Z,52.21
2019-06-08T06:09:02.191Z,52.41
2019-06-08T06:10:02.194Z,52.81
2019-06-08T06:11:02.190Z,52.72
2019-06-08T06:12:07.183Z,53.32
2019-06-08T06:13:02.152Z,53.02
2019-06-08T06:14:02.135Z,53.22
2019-06-08T06:15:02.127Z,52.31
2019-06-08T06:16:02.160Z,52.48
2019-06-08T06:17:02.108Z,51.60
2019-06-08T06:18:02.096Z,52.21
2019-06-08T06:19:02.080Z,51.90
2019-06-08T06:20:02.079Z,51.90
2019-06-08T06:21:10.968Z,52.08
2019-06-08T06:22:03.045Z,51.81
2019-06-08T06:23:07.057Z,52.19
2019-06-08T06:24:02.036Z,52.28
2019-06-08T06:25:02.022Z,51.88
2019-06-08T06:26:02.017Z,52.48
2019-06-08T06:27:02.002Z,52.06
2019-06-08T06:28:05.952Z,50.74
2019-06-08T06:29:01.977Z,52.06
2019-06-08T06:30:02.247Z,52.06
2019-06-08T06:31:01.994Z,51.25
2019-06-08T06:32:01.940Z,51.45
2019-06-08T06:33:01.925Z,50.82
2019-06-08T06:34:06.942Z,51.32
2019-06-08T06:35:01.912Z,51.43
2019-06-08T06:36:01.891Z,51.63
2019-06-08T06:37:01.888Z,51.61
2019-06-08T06:38:01.873Z,51.20
2019-06-08T06:39:01.888Z,51.32
2019-06-08T06:40:01.877Z,51.12
2019-06-08T06:41:01.856Z,51.23
2019-06-08T06:42:01.836Z,51.43
2019-06-08T06:43:01.819Z,52.14
2019-06-08T06:44:01.804Z,51.43
2019-06-08T06:45:06.825Z,51.83
2019-06-08T06:46:01.784Z,51.20
2019-06-08T06:47:01.784Z,51.20
2019-06-08T06:48:01.758Z,50.80
2019-06-08T06:49:01.744Z,50.80
2019-06-08T06:50:01.737Z,50.52
2019-06-08T06:51:01.725Z,50.52
2019-06-08T06:52:01.729Z,51.12
2019-06-08T06:53:01.721Z,51.23
2019-06-08T06:54:01.708Z,50.52
2019-06-08T06:55:01.691Z,50.72
2019-06-08T06:56:06.698Z,50.42
2019-06-08T06:57:01.763Z,50.92
2019-06-08T06:58:01.653Z,51.53
2019-06-08T06:59:01.644Z,51.43
2019-06-08T07:00:01.627Z,51.76
2019-06-08T07:01:01.612Z,51.73
2019-06-08T07:02:01.613Z,51.43
2019-06-08T07:03:01.625Z,50.82
2019-06-08T07:04:01.578Z,52.14
2019-06-08T07:05:01.592Z,51.53
2019-06-08T07:06:01.556Z,51.23
2019-06-08T07:07:06.615Z,50.12
2019-06-08T07:08:01.537Z,50.32
2019-06-08T07:09:01.555Z,50.32
2019-06-08T07:10:01.512Z,50.12
2019-06-08T07:11:01.500Z,50.62
2019-06-08T07:12:01.502Z,50.21
2019-06-08T07:13:01.484Z,50.19
2019-06-08T07:14:01.470Z,49.99
2019-06-08T07:15:01.511Z,51.00
2019-06-08T07:16:17.273Z,50.09
2019-06-08T07:17:02.447Z,49.58
2019-06-08T07:18:06.446Z,49.79
2019-06-08T07:19:01.418Z,50.19
2019-06-08T07:20:01.400Z,49.69
2019-06-08T07:21:01.396Z,50.09
2019-06-08T07:22:01.390Z,50.09
2019-06-08T07:23:01.371Z,49.79
2019-06-08T07:24:01.356Z,49.99
2019-06-08T07:25:01.359Z,49.96
2019-06-08T07:26:01.342Z,47.95
2019-06-08T07:27:01.345Z,47.95
2019-06-08T07:28:01.313Z,48.15
2019-06-08T07:29:06.351Z,48.22
2019-06-08T07:30:01.337Z,47.72
2019-06-08T07:31:01.286Z,48.53
2019-06-08T07:32:01.278Z,49.05
2019-06-08T07:33:01.279Z,49.04
2019-06-08T07:34:01.244Z,49.44
2019-06-08T07:35:01.238Z,49.01
2019-06-08T07:36:01.233Z,49.13
2019-06-08T07:37:01.215Z,48.21
2019-06-08T07:38:01.216Z,48.25
2019-06-08T07:39:01.192Z,48.65
2019-06-08T07:40:06.204Z,48.65
2019-06-08T07:41:01.874Z,47.95
2019-06-08T07:42:01.157Z,48.02
2019-06-08T07:43:01.168Z,48.83
2019-06-08T07:44:01.132Z,48.43
2019-06-08T07:45:01.140Z,48.33
2019-06-08T07:46:01.109Z,48.00
2019-06-08T07:47:01.101Z,48.10
2019-06-08T07:48:01.103Z,48.02
2019-06-08T07:49:01.078Z,47.80
2019-06-08T07:50:04.528Z,47.90
2019-06-08T07:51:06.079Z,47.72
2019-06-08T07:52:09.817Z,48.61
2019-06-08T07:53:02.053Z,47.70
2019-06-08T07:54:01.020Z,47.80
2019-06-08T07:55:01.027Z,47.60
2019-06-08T07:56:01.001Z,47.40
2019-06-08T07:57:00.987Z,47.50
2019-06-08T07:58:00.987Z,47.50
2019-06-08T07:59:00.990Z,48.21
2019-06-08T08:00:08.828Z,47.70
2019-06-08T08:01:07.615Z,48.21
2019-06-08T08:02:06.954Z,48.38
2019-06-08T08:03:00.938Z,47.47
2019-06-08T08:04:00.910Z,47.80
2019-06-08T08:05:00.912Z,46.99
2019-06-08T08:06:00.894Z,47.80
2019-06-08T08:07:00.880Z,47.90
2019-06-08T08:08:00.893Z,47.60
2019-06-08T08:09:00.854Z,48.73
2019-06-08T08:10:00.848Z,48.13
2019-06-08T08:11:00.835Z,48.43
2019-06-08T08:12:00.825Z,48.43
2019-06-08T08:13:05.844Z,47.80
2019-06-08T08:14:00.800Z,48.71
2019-06-08T08:15:00.792Z,47.70
2019-06-08T08:16:00.865Z,46.89
2019-06-08T08:17:00.781Z,47.60
2019-06-08T08:18:00.771Z,47.88
2019-06-08T08:19:00.746Z,47.67
2019-06-08T08:20:00.738Z,46.97
2019-06-08T08:21:09.125Z,47.17
2019-06-08T08:22:18.705Z,47.17
2019-06-08T08:23:05.813Z,46.77
2019-06-08T08:24:07.307Z,47.07
2019-06-08T08:25:04.627Z,46.87
2019-06-08T08:26:01.905Z,46.75
2019-06-08T08:27:03.246Z,46.75
2019-06-08T08:28:01.147Z,46.85
2019-06-08T08:29:03.067Z,46.95
2019-06-08T08:30:02.081Z,46.73
2019-06-08T08:31:01.864Z,47.13
2019-06-08T08:32:01.945Z,45.82
2019-06-08T08:33:02.979Z,45.62
2019-06-08T08:34:05.737Z,46.04
2019-06-08T08:35:08.592Z,45.84
2019-06-08T08:36:01.979Z,45.32
2019-06-08T08:37:05.946Z,46.33
2019-06-08T08:38:04.426Z,46.12
2019-06-08T08:39:02.102Z,46.60
2019-06-08T08:40:01.512Z,45.90
2019-06-08T08:41:07.185Z,45.29
2019-06-08T08:42:04.757Z,45.59
2019-06-08T08:43:01.700Z,45.59
2019-06-08T08:44:02.844Z,46.40
2019-06-08T08:45:05.127Z,46.02
2019-06-08T08:46:07.705Z,45.92
2019-06-08T08:47:02.594Z,45.72
2019-06-08T08:48:21.083Z,46.93
2019-06-08T08:49:09.493Z,46.40
2019-06-08T08:50:02.181Z,46.80
2019-06-08T08:51:03.299Z,45.79
2019-06-08T08:52:01.726Z,45.59
2019-06-08T08:53:02.059Z,46.00
2019-06-08T08:54:03.955Z,46.00
2019-06-08T08:55:01.911Z,45.57
2019-06-08T08:56:02.058Z,45.87
2019-06-08T08:57:08.150Z,45.78
2019-06-08T08:58:02.041Z,45.37
2019-06-08T08:59:02.460Z,45.57
2019-06-08T09:00:04.310Z,45.25
2019-06-08T09:01:03.470Z,44.27
2019-06-08T09:02:02.807Z,43.96
2019-06-08T09:03:21.954Z,44.59
2019-06-08T09:04:04.816Z,44.29
2019-06-08T09:05:03.289Z,44.79
2019-06-08T09:06:03.590Z,44.09
2019-06-08T09:07:05.522Z,43.99
2019-06-08T09:08:08.645Z,44.59
2019-06-08T09:09:03.249Z,44.81
2019-06-08T09:10:02.320Z,44.59
2019-06-08T09:11:03.250Z,45.50
2019-06-08T09:12:03.014Z,45.19
2019-06-08T09:13:02.942Z,45.59
2019-06-08T09:14:05.158Z,45.59
2019-06-08T09:15:03.527Z,46.02
2019-06-08T09:16:02.334Z,45.70
2019-06-08T09:17:02.085Z,45.70
2019-06-08T09:18:03.323Z,45.09
2019-06-08T09:19:05.116Z,45.19
2019-06-08T09:20:03.257Z,45.19
2019-06-08T09:21:02.352Z,46.10
2019-06-08T09:22:02.742Z,44.47
2019-06-08T09:23:08.707Z,45.09
2019-06-08T09:24:03.843Z,45.07
2019-06-08T09:25:03.178Z,44.24
2019-06-08T09:26:08.652Z,44.15
2019-06-08T09:27:04.031Z,44.15
2019-06-08T09:28:02.881Z,43.82
2019-06-08T09:29:03.073Z,44.04
2019-06-08T09:30:05.107Z,43.72
2019-06-08T09:31:02.220Z,42.41
2019-06-08T09:32:01.838Z,42.32
2019-06-08T09:33:01.960Z,42.80
2019-06-08T09:34:10.491Z,41.49
2019-06-08T09:35:03.584Z,41.19
2019-06-08T09:36:02.760Z,41.37
2019-06-08T09:37:02.747Z,42.10
2019-06-08T09:38:03.222Z,42.82
2019-06-08T09:39:03.060Z,41.27
2019-06-08T09:40:00.864Z,41.37
2019-06-08T09:41:05.409Z,41.75
2019-06-08T09:42:02.766Z,42.38
2019-06-08T09:43:07.428Z,42.88
2019-06-08T09:44:04.442Z,42.55
2019-06-08T09:45:03.415Z,42.90
2019-06-08T09:46:03.006Z,42.40
2019-06-08T09:47:06.555Z,42.80
2019-06-08T09:48:03.967Z,41.75
2019-06-08T09:49:04.804Z,41.93
2019-06-08T09:50:03.339Z,41.13
2019-06-08T09:51:01.834Z,41.43
2019-06-08T09:52:05.263Z,41.65
2019-06-08T09:53:17.950Z,41.74
2019-06-08T09:54:03.742Z,41.41
2019-06-08T09:55:03.946Z,41.74
2019-06-08T09:56:04.316Z,40.83
2019-06-08T09:57:02.719Z,41.55
2019-06-08T09:58:04.991Z,42.25
2019-06-08T09:59:04.048Z,42.16
2019-06-08T10:00:02.954Z,42.66
2019-06-08T10:01:02.852Z,42.18
2019-06-08T10:02:05.656Z,42.47
2019-06-08T10:03:08.706Z,42.60
2019-06-08T10:04:02.396Z,42.47
2019-06-08T10:05:02.108Z,42.27
2019-06-08T10:06:05.331Z,42.18
2019-06-08T10:07:02.313Z,43.08
2019-06-08T10:08:02.131Z,43.30
2019-06-08T10:09:00.720Z,42.60
2019-06-08T10:10:02.558Z,42.30
2019-06-08T10:11:02.761Z,42.80
2019-06-08T10:12:01.686Z,42.30
2019-06-08T10:13:01.769Z,42.30
2019-06-08T10:14:09.242Z,41.27
2019-06-08T10:15:00.762Z,41.17
2019-06-08T10:16:03.115Z,41.57
2019-06-08T10:17:02.405Z,41.97
2019-06-08T10:18:00.920Z,41.97
2019-06-08T10:19:02.281Z,41.27
2019-06-08T10:20:02.640Z,42.05
2019-06-08T10:21:01.222Z,42.05
2019-06-08T10:22:00.828Z,42.76
2019-06-08T10:23:01.562Z,42.46
2019-06-08T10:24:01.374Z,41.05
2019-06-08T10:25:07.866Z,40.85
2019-06-08T10:26:01.392Z,41.35
2019-06-08T10:26:59.445Z,41.45
2019-06-08T10:28:04.112Z,41.53
2019-06-08T10:29:03.502Z,41.63
2019-06-08T10:30:02.843Z,42.03
2019-06-08T10:31:01.171Z,41.53
2019-06-08T10:31:59.441Z,41.43
2019-06-08T10:33:01.777Z,41.23
2019-06-08T10:34:02.143Z,40.73
2019-06-08T10:35:02.219Z,40.63
2019-06-08T10:36:06.034Z,40.83
2019-06-08T10:37:06.437Z,40.71
2019-06-08T10:38:04.586Z,40.89
2019-06-08T10:39:03.887Z,39.37
2019-06-08T10:40:02.588Z,39.35
2019-06-08T10:41:06.562Z,39.85
2019-06-08T10:42:03.219Z,39.09
2019-06-08T10:43:01.395Z,40.19
2019-06-08T10:43:59.243Z,40.93
2019-06-08T10:45:02.759Z,40.73
2019-06-08T10:46:04.943Z,41.03
2019-06-08T10:47:06.768Z,41.65
2019-06-08T10:48:00.816Z,41.74
2019-06-08T10:48:59.639Z,41.93
2019-06-08T10:50:05.445Z,41.15
2019-06-08T10:51:02.221Z,40.85
2019-06-08T10:52:01.658Z,41.05
2019-06-08T10:53:02.516Z,41.77
2019-06-08T10:53:59.950Z,41.77
2019-06-08T10:55:00.996Z,41.37
2019-06-08T10:55:59.826Z,41.75
2019-06-08T10:57:00.378Z,40.83
2019-06-08T10:58:04.499Z,41.33
2019-06-08T10:59:01.633Z,41.53
2019-06-08T10:59:59.851Z,41.53
2019-06-08T11:01:02.252Z,41.23
2019-06-08T11:02:02.668Z,40.51
2019-06-08T11:03:02.146Z,40.51
2019-06-08T11:04:00.292Z,40.21
2019-06-08T11:05:04.558Z,40.49
2019-06-08T11:06:01.260Z,40.61
2019-06-08T11:07:04.341Z,40.71
2019-06-08T11:08:01.283Z,40.91
2019-06-08T11:09:07.355Z,40.81
2019-06-08T11:10:01.843Z,40.51
2019-06-08T11:11:00.011Z,41.41
2019-06-08T11:12:00.264Z,41.43
2019-06-08T11:13:04.536Z,41.23
2019-06-08T11:14:00.945Z,41.11
2019-06-08T11:14:59.900Z,40.07
2019-06-08T11:16:01.061Z,40.25
2019-06-08T11:16:58.767Z,39.51
2019-06-08T11:18:02.790Z,38.78
2019-06-08T11:19:00.981Z,38.49
2019-06-08T11:20:04.809Z,37.64
2019-06-08T11:21:00.779Z,37.82
2019-06-08T11:22:02.859Z,37.64
2019-06-08T11:23:00.748Z,37.32
2019-06-08T11:24:10.409Z,35.29
2019-06-08T11:25:00.742Z,35.46
2019-06-08T11:26:03.444Z,35.17
2019-06-08T11:27:00.053Z,35.19
2019-06-08T11:27:59.839Z,35.17
2019-06-08T11:28:58.822Z,35.47
2019-06-08T11:29:59.568Z,35.58
2019-06-08T11:31:04.004Z,36.69
2019-06-08T11:31:59.856Z,36.91
2019-06-08T11:32:59.884Z,37.23
2019-06-08T11:34:00.160Z,37.04
2019-06-08T11:34:59.813Z,37.46
2019-06-08T11:36:02.966Z,37.74
2019-06-08T11:37:01.202Z,37.76
2019-06-08T11:38:00.110Z,38.07
2019-06-08T11:39:00.265Z,37.70
2019-06-08T11:39:59.744Z,38.91
2019-06-08T11:41:00.894Z,38.43
2019-06-08T11:42:00.322Z,39.63
2019-06-08T11:42:58.995Z,38.91
2019-06-08T11:44:05.036Z,39.01
2019-06-08T11:44:58.726Z,38.61
2019-06-08T11:45:58.571Z,38.73
2019-06-08T11:46:58.451Z,39.23
2019-06-08T11:47:58.566Z,38.93
2019-06-08T11:49:01.132Z,38.70
2019-06-08T11:50:00.559Z,37.64
2019-06-08T11:50:58.632Z,37.79
2019-06-08T11:51:58.489Z,36.46
2019-06-08T11:53:00.358Z,35.14
2019-06-08T11:53:59.434Z,36.25
2019-06-08T11:55:04.142Z,35.96
2019-06-08T11:55:58.651Z,35.42
2019-06-08T11:56:58.352Z,35.31
2019-06-08T11:57:58.632Z,35.03
2019-06-08T11:58:58.311Z,34.53
2019-06-08T11:59:58.529Z,33.50
2019-06-08T12:01:00.777Z,33.59
2019-06-08T12:01:58.681Z,32.97
2019-06-08T12:02:58.267Z,32.87
2019-06-08T12:03:58.256Z,32.78
2019-06-08T12:04:58.256Z,32.96
2019-06-08T12:06:04.221Z,33.04
2019-06-08T12:06:58.515Z,32.86
2019-06-08T12:07:58.261Z,33.37
2019-06-08T12:09:00.283Z,32.24
2019-06-08T12:09:58.442Z,31.32
2019-06-08T12:11:02.142Z,31.54
2019-06-08T12:11:59.177Z,31.31
2019-06-08T12:12:58.158Z,30.41
2019-06-08T12:13:58.544Z,30.12
2019-06-08T12:14:58.348Z,30.22
2019-06-08T12:15:58.849Z,31.67
2019-06-08T12:17:01.416Z,33.40
2019-06-08T12:17:58.680Z,34.33
2019-06-08T12:19:04.403Z,33.29
2019-06-08T12:19:58.161Z,33.07
2019-06-08T12:20:58.385Z,33.50
2019-06-08T12:21:58.165Z,33.93
2019-06-08T12:22:58.079Z,35.36
2019-06-08T12:23:58.046Z,35.38
2019-06-08T12:24:58.029Z,35.79
2019-06-08T12:25:58.021Z,36.32
2019-06-08T12:27:05.292Z,36.82
2019-06-08T12:27:58.995Z,36.52
2019-06-08T12:29:01.224Z,36.43
2019-06-08T12:29:58.755Z,36.44
2019-06-08T12:31:00.874Z,37.34
2019-06-08T12:32:03.005Z,36.96
2019-06-08T12:32:58.199Z,37.16
2019-06-08T12:33:58.752Z,36.84
2019-06-08T12:35:00.064Z,37.24
2019-06-08T12:35:57.991Z,36.94
2019-06-08T12:36:58.298Z,36.84
2019-06-08T12:37:58.194Z,37.04
2019-06-08T12:38:58.577Z,37.04
2019-06-08T12:40:00.966Z,36.64
2019-06-08T12:40:58.731Z,37.56
2019-06-08T12:41:58.305Z,37.16
2019-06-08T12:43:02.869Z,38.04
2019-06-08T12:43:58.110Z,37.54
2019-06-08T12:44:58.740Z,37.94
2019-06-08T12:45:58.164Z,38.22
2019-06-08T12:46:58.688Z,37.32
2019-06-08T12:47:57.791Z,36.43
2019-06-08T12:48:58.338Z,36.02
2019-06-08T12:49:58.486Z,36.64
2019-06-08T12:50:57.754Z,36.44
2019-06-08T12:51:58.359Z,36.34